Orange8 — JL6278 — position and weather

sailwx.info

Track history (hours):
 
Tides and Currents Weather Stations Pressure Air Temp Water Temp Dewpoint Dewpoint Depression Visibility Wind Speed Wind Dir Waves Ship Positions

Orange8

Last reported at 2015-Jul-04 02:33 UTC. Time now 2015-Jul-04 03:28 UTC.
Position N 34°37' E 135°26'.

Length 164 m; draft 5 m.

Type: Passenger vessel. MMSI: 431501603.

Date/timePositionNaut miles runAvg speedWind from/ knotsBaromVisibWave heightAir tempDewpointWater temp
2015-Jul-04 02:33N 34°37' E 135°26'0 0.0
2015-Jul-04 01:33N 34°37' E 135°26'0 0.0
2015-Jul-04 00:27N 34°37' E 135°26'0 0.0
2015-Jul-03 23:33N 34°37' E 135°26'0 0.0
2015-Jul-03 22:33N 34°37' E 135°26'0 0.0
2015-Jul-03 21:15N 34°37' E 135°26'5 7.4
2015-Jul-03 20:33N 34°36' E 135°20'1716.7
2015-Jul-03 19:33N 34°37' E 134°59'3 0.1
2015-Jul-02 14:33N 34°37' E 134°56'1918.5
2015-Jul-02 13:33N 34°37' E 135°19'6 5.6
2015-Jul-02 12:30N 34°37' E 135°26'0 0.0
2015-Jul-02 11:31N 34°37' E 135°26'0 0.0
2015-Jul-02 10:25N 34°37' E 135°26'0 0.0
2015-Jul-02 09:31N 34°37' E 135°26'0 0.0
2015-Jul-02 08:31N 34°37' E 135°26'0 0.0
2015-Jul-02 07:30N 34°37' E 135°26'0 0.0
2015-Jul-02 06:31N 34°37' E 135°26'0 0.0
2015-Jul-02 05:31N 34°37' E 135°26'0 0.0
2015-Jul-02 04:31N 34°37' E 135°26'0 0.0
2015-Jul-02 03:31N 34°37' E 135°26'0 0.0
2015-Jul-02 02:25N 34°37' E 135°26'0 0.0
2015-Jul-02 01:31N 34°37' E 135°26'0 0.0
2015-Jul-02 00:31N 34°37' E 135°26'0 0.0
2015-Jul-01 23:31N 34°37' E 135°26'0 0.0
2015-Jul-01 22:31N 34°37' E 135°26'0 0.0
2015-Jul-01 21:19N 34°37' E 135°26'7 8.9
2015-Jul-01 20:33N 34°35' E 135°18'1817.8
2015-Jul-01 19:33N 34°36' E 134°57'15 0.5
2015-Jun-30 15:23N 34°31' E 134°39'1618.8
2015-Jun-30 14:33N 34°37' E 134°57'1818.2
2015-Jun-30 13:33N 34°37' E 135°19'6 4.3
2015-Jun-30 12:10N 34°37' E 135°26'0 0.0
2015-Jun-30 11:22N 34°37' E 135°26'0 0.0
2015-Jun-30 10:28N 34°37' E 135°26'0 0.0
2015-Jun-30 09:28N 34°37' E 135°26'0 0.0
2015-Jun-30 08:10N 34°37' E 135°26'0 0.0
2015-Jun-30 07:28N 34°37' E 135°26'0 0.0
2015-Jun-30 06:28N 34°37' E 135°26'0 0.0
2015-Jun-30 05:28N 34°37' E 135°26'0 0.0
2015-Jun-30 04:28N 34°37' E 135°26'0 0.0
2015-Jun-30 03:28N 34°37' E 135°26'0 0.0
2015-Jun-30 02:28N 34°37' E 135°26'0 0.0
2015-Jun-30 01:22N 34°37' E 135°26'0 0.0
2015-Jun-30 00:28N 34°37' E 135°26'0 0.0
2015-Jun-29 23:28N 34°37' E 135°26'0 0.0
2015-Jun-29 22:28N 34°37' E 135°26'0 0.0
2015-Jun-29 21:10N 34°37' E 135°26'5 8.6
2015-Jun-29 20:33N 34°36' E 135°20'1515.4
2015-Jun-29 19:34N 34°37' E 135°01'3 0.1
2015-Jun-28 14:33N 34°37' E 134°58'1817.6
2015-Jun-28 13:33N 34°37' E 135°19'6 5.2
2015-Jun-28 12:29N 34°37' E 135°26'0 0.0
2015-Jun-28 11:29N 34°37' E 135°26'0 0.0
2015-Jun-28 10:29N 34°37' E 135°26'0 0.0
2015-Jun-28 09:29N 34°37' E 135°26'0 0.0
2015-Jun-28 08:29N 34°37' E 135°26'0 0.0
2015-Jun-28 07:29N 34°37' E 135°26'0 0.0
2015-Jun-28 06:29N 34°37' E 135°26'0 0.0
2015-Jun-28 05:23N 34°37' E 135°26'0 0.0
2015-Jun-28 04:29N 34°37' E 135°26'0 0.0
2015-Jun-28 03:29N 34°37' E 135°26'0 0.0
2015-Jun-28 02:29N 34°37' E 135°26'0 0.0
2015-Jun-28 01:29N 34°37' E 135°26'0 0.0
2015-Jun-28 00:29N 34°37' E 135°26'0 0.0
2015-Jun-27 23:29N 34°37' E 135°26'0 0.0
2015-Jun-27 22:33N 34°37' E 135°26'0 0.0
2015-Jun-27 21:33N 34°37' E 135°26'5 5.4
2015-Jun-27 20:33N 34°36' E 135°19'1818.4
2015-Jun-27 19:33N 34°36' E 134°57'1 0.0
2015-Jun-26 14:33N 34°37' E 134°58'1717.3
2015-Jun-26 13:34N 34°37' E 135°18'6 5.7
2015-Jun-26 12:29N 34°37' E 135°26'0 0.0
2015-Jun-26 11:23N 34°37' E 135°26'0 0.0
2015-Jun-26 10:29N 34°37' E 135°26'0 0.0
2015-Jun-26 09:29N 34°37' E 135°26'0 0.0
2015-Jun-26 08:29N 34°37' E 135°26'0 0.0
2015-Jun-26 07:29N 34°37' E 135°26'0 0.0
2015-Jun-26 06:23N 34°37' E 135°26'0 0.0
2015-Jun-26 05:29N 34°37' E 135°26'0 0.0
2015-Jun-26 04:29N 34°37' E 135°26'0 0.0
2015-Jun-26 03:23N 34°37' E 135°26'0 0.0
2015-Jun-26 02:29N 34°37' E 135°26'0 0.0
2015-Jun-26 01:29N 34°37' E 135°26'0 0.0
2015-Jun-26 00:23N 34°37' E 135°26'0 0.0
2015-Jun-25 23:29N 34°37' E 135°26'0 0.0
2015-Jun-25 22:29N 34°37' E 135°26'0 0.0
2015-Jun-25 21:29N 34°37' E 135°26'6 6.7
2015-Jun-25 20:33N 34°35' E 135°19'1918.7
2015-Jun-25 19:32N 34°36' E 134°56'3 0.1
2015-Jun-24 14:32N 34°38' E 134°59'1717.5
2015-Jun-24 13:33N 34°37' E 135°19'5 4.6
2015-Jun-24 12:23N 34°37' E 135°26'0 0.0
2015-Jun-24 11:29N 34°37' E 135°26'0 0.0
2015-Jun-24 10:29N 34°37' E 135°26'0 0.0
2015-Jun-24 09:29N 34°37' E 135°26'0 0.0
2015-Jun-24 08:29N 34°37' E 135°26'0 0.0
2015-Jun-24 07:29N 34°37' E 135°26'0 0.0
2015-Jun-24 06:29N 34°37' E 135°26'0 0.0
2015-Jun-24 05:23N 34°37' E 135°26'0 0.0
2015-Jun-24 04:29N 34°37' E 135°26'0 0.0
2015-Jun-24 03:29N 34°37' E 135°26'  
Track history (hours):
 
Tides and Currents Weather Stations Pressure Air Temp Water Temp Dewpoint Dewpoint Depression Visibility Wind Speed Wind Dir Waves Ship Positions

Orange8

Last reported at 2015-Jul-04 02:33 UTC. Time now 2015-Jul-04 03:28 UTC.
Position N 34°37' E 135°26'.

Length 164 m; draft 5 m.

Type: Passenger vessel. MMSI: 431501603.

Date/timePositionNaut miles runAvg speedWind from/ knotsBaromVisibWave heightAir tempDewpointWater temp
2015-Jul-04 02:33N 34°37' E 135°26'0 0.0
2015-Jul-04 01:33N 34°37' E 135°26'0 0.0
2015-Jul-04 00:27N 34°37' E 135°26'0 0.0
2015-Jul-03 23:33N 34°37' E 135°26'0 0.0
2015-Jul-03 22:33N 34°37' E 135°26'0 0.0
2015-Jul-03 21:15N 34°37' E 135°26'5 7.4
2015-Jul-03 20:33N 34°36' E 135°20'1716.7
2015-Jul-03 19:33N 34°37' E 134°59'3 0.1
2015-Jul-02 14:33N 34°37' E 134°56'1918.5
2015-Jul-02 13:33N 34°37' E 135°19'6 5.6
2015-Jul-02 12:30N 34°37' E 135°26'0 0.0
2015-Jul-02 11:31N 34°37' E 135°26'0 0.0
2015-Jul-02 10:25N 34°37' E 135°26'0 0.0
2015-Jul-02 09:31N 34°37' E 135°26'0 0.0
2015-Jul-02 08:31N 34°37' E 135°26'0 0.0
2015-Jul-02 07:30N 34°37' E 135°26'0 0.0
2015-Jul-02 06:31N 34°37' E 135°26'0 0.0
2015-Jul-02 05:31N 34°37' E 135°26'0 0.0
2015-Jul-02 04:31N 34°37' E 135°26'0 0.0
2015-Jul-02 03:31N 34°37' E 135°26'0 0.0
2015-Jul-02 02:25N 34°37' E 135°26'0 0.0
2015-Jul-02 01:31N 34°37' E 135°26'0 0.0
2015-Jul-02 00:31N 34°37' E 135°26'0 0.0
2015-Jul-01 23:31N 34°37' E 135°26'0 0.0
2015-Jul-01 22:31N 34°37' E 135°26'0 0.0
2015-Jul-01 21:19N 34°37' E 135°26'7 8.9
2015-Jul-01 20:33N 34°35' E 135°18'1817.8
2015-Jul-01 19:33N 34°36' E 134°57'15 0.5
2015-Jun-30 15:23N 34°31' E 134°39'1618.8
2015-Jun-30 14:33N 34°37' E 134°57'1818.2
2015-Jun-30 13:33N 34°37' E 135°19'6 4.3
2015-Jun-30 12:10N 34°37' E 135°26'0 0.0
2015-Jun-30 11:22N 34°37' E 135°26'0 0.0
2015-Jun-30 10:28N 34°37' E 135°26'0 0.0
2015-Jun-30 09:28N 34°37' E 135°26'0 0.0
2015-Jun-30 08:10N 34°37' E 135°26'0 0.0
2015-Jun-30 07:28N 34°37' E 135°26'0 0.0
2015-Jun-30 06:28N 34°37' E 135°26'0 0.0
2015-Jun-30 05:28N 34°37' E 135°26'0 0.0
2015-Jun-30 04:28N 34°37' E 135°26'0 0.0
2015-Jun-30 03:28N 34°37' E 135°26'0 0.0
2015-Jun-30 02:28N 34°37' E 135°26'0 0.0
2015-Jun-30 01:22N 34°37' E 135°26'0 0.0
2015-Jun-30 00:28N 34°37' E 135°26'0 0.0
2015-Jun-29 23:28N 34°37' E 135°26'0 0.0
2015-Jun-29 22:28N 34°37' E 135°26'0 0.0
2015-Jun-29 21:10N 34°37' E 135°26'5 8.6
2015-Jun-29 20:33N 34°36' E 135°20'1515.4
2015-Jun-29 19:34N 34°37' E 135°01'3 0.1
2015-Jun-28 14:33N 34°37' E 134°58'1817.6
2015-Jun-28 13:33N 34°37' E 135°19'6 5.2
2015-Jun-28 12:29N 34°37' E 135°26'0 0.0
2015-Jun-28 11:29N 34°37' E 135°26'0 0.0
2015-Jun-28 10:29N 34°37' E 135°26'0 0.0
2015-Jun-28 09:29N 34°37' E 135°26'0 0.0
2015-Jun-28 08:29N 34°37' E 135°26'0 0.0
2015-Jun-28 07:29N 34°37' E 135°26'0 0.0
2015-Jun-28 06:29N 34°37' E 135°26'0 0.0
2015-Jun-28 05:23N 34°37' E 135°26'0 0.0
2015-Jun-28 04:29N 34°37' E 135°26'0 0.0
2015-Jun-28 03:29N 34°37' E 135°26'0 0.0
2015-Jun-28 02:29N 34°37' E 135°26'0 0.0
2015-Jun-28 01:29N 34°37' E 135°26'0 0.0
2015-Jun-28 00:29N 34°37' E 135°26'0 0.0
2015-Jun-27 23:29N 34°37' E 135°26'0 0.0
2015-Jun-27 22:33N 34°37' E 135°26'0 0.0
2015-Jun-27 21:33N 34°37' E 135°26'5 5.4
2015-Jun-27 20:33N 34°36' E 135°19'1818.4
2015-Jun-27 19:33N 34°36' E 134°57'1 0.0
2015-Jun-26 14:33N 34°37' E 134°58'1717.3
2015-Jun-26 13:34N 34°37' E 135°18'6 5.7
2015-Jun-26 12:29N 34°37' E 135°26'0 0.0
2015-Jun-26 11:23N 34°37' E 135°26'0 0.0
2015-Jun-26 10:29N 34°37' E 135°26'0 0.0
2015-Jun-26 09:29N 34°37' E 135°26'0 0.0
2015-Jun-26 08:29N 34°37' E 135°26'0 0.0
2015-Jun-26 07:29N 34°37' E 135°26'0 0.0
2015-Jun-26 06:23N 34°37' E 135°26'0 0.0
2015-Jun-26 05:29N 34°37' E 135°26'0 0.0
2015-Jun-26 04:29N 34°37' E 135°26'0 0.0
2015-Jun-26 03:23N 34°37' E 135°26'0 0.0
2015-Jun-26 02:29N 34°37' E 135°26'0 0.0
2015-Jun-26 01:29N 34°37' E 135°26'0 0.0
2015-Jun-26 00:23N 34°37' E 135°26'0 0.0
2015-Jun-25 23:29N 34°37' E 135°26'0 0.0
2015-Jun-25 22:29N 34°37' E 135°26'0 0.0
2015-Jun-25 21:29N 34°37' E 135°26'6 6.7
2015-Jun-25 20:33N 34°35' E 135°19'1918.7
2015-Jun-25 19:32N 34°36' E 134°56'3 0.1
2015-Jun-24 14:32N 34°38' E 134°59'1717.5
2015-Jun-24 13:33N 34°37' E 135°19'5 4.6
2015-Jun-24 12:23N 34°37' E 135°26'0 0.0
2015-Jun-24 11:29N 34°37' E 135°26'0 0.0
2015-Jun-24 10:29N 34°37' E 135°26'0 0.0
2015-Jun-24 09:29N 34°37' E 135°26'0 0.0
2015-Jun-24 08:29N 34°37' E 135°26'0 0.0
2015-Jun-24 07:29N 34°37' E 135°26'0 0.0
2015-Jun-24 06:29N 34°37' E 135°26'0 0.0
2015-Jun-24 05:23N 34°37' E 135°26'0 0.0
2015-Jun-24 04:29N 34°37' E 135°26'0 0.0
2015-Jun-24 03:29N 34°37' E 135°26'  

Dump ship's entire track history